Aviation Digital Data Service (ADDS)

Output produced by METARs form (1910 UTC 18 June 2019)
found at http://www.aviationweather.gov/metar/data/
 
VEAT 181400Z 00000KT 5000 BR FEW020 SCT100 31/28 Q0999 NOSIG
TAF VEAT 181400Z 1815/1824 00000KT 5000 BR FEW020 BKN100 
     TEMPO 1816/1820 23006KT 3000 -TSRA FEW010 SCT016 FEW030CB OVC090
       
VIAG 181730Z 00000KT 6000 -RA SCT025 BKN090 28/25 Q1002 TEMPO 32015G25KT 3000M
TAF VIAG 181530Z 1818/1906 26005KT 6000 SCT030 BKN090 
     TEMPO 1900/1902 3000 TSRA SCT020 FEW025CB BKN090
       
VAAH 181900Z 22009KT 3000 HZ FEW015 SCT020 FEW030CB BKN080 28/25 Q1000 NOSIG
TAF VAAH 181700Z 1818/1903 21010KT 4000 HZ-TSRA FEW020 FEW030CB SCT080 
     BECMG 1901/1903 21007KT 2000 HZ FEW020 SCT025
       
VIAR 181900Z VRB02KT 3000 HZ SCT040 BKN100 27/21 Q1001 NOSIG
TAF VIAR 181701Z 1818/1924 VRB02KT 3000 HZ SCT035 BKN100 
     BECMG 1818/1822 1500 TSRA SCT035 FEW040CB OVC080 
     BECMG 1823/1901 00000KT 2000 HZ BR 
     BECMG 1905/1907 16008KT 5000 HZ FEW035 SCT100 
     BECMG 1909/1915 1500 TSRA SCT035 FEW040CB OVC080 
     BECMG 1915/1917 VRB02KT 3000 HZ BR 
     BECMG 1920/1921 00000KT 2000 HZ BR
       
VAAU 181800Z 23008KT 4000 HZ NSC 27/20 Q1008 NOSIG
TAF VAAU 181100Z 1812/1821 25008KT 5000 HZ SCT020 SCT025 
     TEMPO 1812/1821 2000 -TSRA -RA SCT015 FEW030CB BKN090
       
VEBD 181730Z 03003KT 6000 FEW030 27/26 Q1002 NOSIG
TAF VEBD 181530Z 1900/1912 06010KT 6000 SCT030 SCT100 SCT250 
     TEMPO 1900/1903 12010KT 2000 TSRA SCT010 FEW030CB BKN080
       
VOBG 181800Z 27010KT 9999 SCT008 SCT080 25/19 Q1013
TAF VOBG 181700Z 1818/1903 27010KT 6000 SCT012 SCT080 
     TEMPO 1900/1903 4000 DZ BR SCT010 SCT012
       
VABV 181400Z 22013KT 4000 FU SCT020 SCT080 31/25 Q1000
TAF VABV 181700Z 1818/1903 23010KT 4000 HZ FEW020 
     BECMG 1901/1903 2000 SCT015 SCT025
       
VABP 181800Z 19004KT 6000 SCT025 31/20 Q1004 NOSIG
TAF VABP 181700Z 1818/1924 29005KT 5000 HZ FEW025 SCT100 
     BECMG 1906/1908 27008KT 6000 SCT025 SCT030 
     BECMG 1912/1914 32005KT 4000 -RA HZ SCT025 BKN100 
     TEMPO 1910/1914 34010G20KT 1500 -TSRA SCT020 FEW030CB BKN090
       
VEBS 181900Z 27004KT 4000 HZ SCT020 SCT100 29/25 Q1000 NOSIG
TAF VEBS 181700Z 1818/1903 23005KT 4000 HZ SCT020 SCT100 
     TEMPO 1819/1823 2000 -TSRA BKN018 FEW030CB OVC090 
     BECMG 1823/1901 3000 BR
       
TAF VABJ 181700Z 1818/1903 23009KT 5000 HZ FEW020 SCT080 
     BECMG 1901/1903 4000 FEW020 SCT080
       
VERC 181900Z 27003KT 4000 HZ SCT020 BKN100 29/22 Q1005 NOSIG
TAF VERC 181700Z 1818/1903 24004KT 4000 HZ SCT020 BKN100 
     BECMG 1900/1902 3000 HZ
       
VOCL 181830Z 05003KT 4000 BR SCT008 FEW025CB BKN080 26/25 Q1009 TEMPO 3000 TSRA
TAF VOCL 181700Z 1818/1924 06005KT 3000 BR SC012 FEW025CB BKN080 
     TEMPO 1822/1903 2500TSRA/ RA/BR SCT008 SCT012 FEW025CB BKN080 
     BECMG 1904/1906 26010KT 6000 SCT012 FEW025CB BKN080 
     TEMPO 1912/1916 3000 TSRA/RA SCT008 SCT012 FEW025CB BKN080 
     BECMG 1918/1920 VRB05KT 4000 BR SCT012 BKN080
       
VICG 181730Z 35004KT 6000 BKN100 28/20 Q1002 NOSIG
TAF VICG 181530Z 1818/1906 32010KT 6000 FEW030 BKN100 
     PROB30 
     TEMPO 1823/1901 02010KT 5000 HZ FEW030TCU SCT100
       
VOMM 181900Z 20007KT 6000 FEW020 SCT100 33/26 Q1004 NOSIG
TAF VOMM 181700Z 1818/1924 18010KT 6000 FEW020 SCT100 
     TEMPO 1818/1824 SCT018 FEW025TCU/CB BKN100 
     BECMG 1900/1901 29005KT 
     BECMG 1906/1907 29010G20KT 
     BECMG 1909/1910 13010G20KT 
     BECMG 1915/1916 18010KT
       
VABB 181900Z 12005KT 1500 RA SCT018 SCT025 FEW025TCU BKN090 27/26 Q1005 TEMPO 0800 +SHRA
TAF VABB 181700Z 1818/1924 22008KT 3000 -RA HZ SCT018 SCT025 BKN090 
     TEMPO 1900/1912 2000 -SHRA RA FEW012 SCT018 FEW025TCU BKN080 
     BECMG 1901/1903 22010G20KT 
     BECMG 1910/1912 24012KT 
     TEMPO 1912/1918 1500 TSRA SHRA SCT012 SCT018 FEW030CB OVC080
       
VOCI 181900Z 00000KT 3500 BR FEW008 SCT015 BKN080 26/25 Q1009 NOSIG
TAF VOCI 181700Z 1818/1924 VRB05KT 4000 HZ SC015 FEW025CB OVC080 
     TEMPO 1822/1903 09005KT 2500 RA/BR SCT010 SCT012 FEW025CB OVC080 
     BECMG 1904/1906 28010KT 5000 HZ SCT012 BKN080 
     TEMPO 1912/1916 2500 TSRA/RA SCT008 SCT012 FEW025CB BKN080 
     BECMG 1918/1920 VRB05KT 4000 BR SCT012 BKN080
       
VOCB 181900Z 20009KT 5000 HZ FEW015 26/22 Q1010 NOSIG
TAF VOCB 181700Z 1818/1924 20010KT 5000 BR/HZ FEW015 SCT080 
     TEMPO 1818/1824 SCT015 FEW020TCU/CB BKN080 
     BECMG 1904/1905 6000 
     TEMPO 1912/1918 SCT015 FEW020TCU/CB BKN080 
     BECMG 1915/1916 5000 BR/HZ
       
TAF VOCP 180800Z 1809/1818 27010G20KT 6000 FEW020 SCT100
       
VIDN 181430Z 18003KT 3500 HZ SCT040 SCT080 29/18 Q1002
TAF VIDN 181100Z 1812/1821 32006KT 5000 HZ SCT040 BKN100 
     BECMG 1815/1818 2000 -TSRA SCT035 FEW040CB OVC060
       
VAID 181800Z 23014KT 6000 SCT025 BKN100 29/20 Q1005 NOSIG
TAF VAID 181700Z 1818/1903 29003KT 4000 HZ FEW020 SCT100
       
TAF VEMN 181100Z 1812/1821 07006KT 4000 HZ FEW020 BKN100 
     BECMG 1818/1821 05005KT 3000 BR FEW020 BKN100
       
VEGK 181730Z 11003KT 6000 SCT120 30/18 Q1000 NOSIG
TAF VEGK 181530Z 1900/1912 12005KT 6000 FEW200 
     BECMG 1902/1904 27010KT SCT030
       
VEGT 181900Z 00000KT 3000 BR SCT018 BKN100 30/28 Q1002 NOSIG
TAF VEGT 181700Z 1818/1903 00000KT 3000 BR FEW020 SCT100 
     TEMPO 1900/1903 22010KT 1500 U2013TSRA SCT018 FEW025CB BKN090
       
VIGR 181730Z 18006KT 5000 HZ SCT025 BKN090 30/21 Q1002
TAF VIGR 181530Z 1900/1912 22005KT 5000 HZ SCT030 SCT090 
     TEMPO 1902/1905 26010KT 5000 -RABR SCT030 BKN090 
     BECMG 1905/1907 27010KT 6000 FEW040 SCT090 
     TEMPO 1910/1912 29010G20KT 4000 TSRA SCT030 FEW040CB SCT080
       
VOHY 181600Z 22006KT 6000 SCT020 BKN100 35/19 Q1008 NOSIG
TAF VOHY 181100Z 1812/1821 26012KT 6000 SCT020 SCT025 
     BECMG 1816/1818 30008KT 5000 HZ SCT020 SCT100
       
TAF VEIM 181700Z 1818/1903 24006KT 2000 U2013RA BR FEW010 SCT018 FEW025CB OVC090
       
VIDP 181900Z 00000KT 4000 HZ SCT040 BKN100 28/19 Q1002 NOSIG
TAF VIDP 181700Z 1818/1924 23003KT 2500 FEW035 SCT100 
     BECMG 1823/1901 00000KT 2000 HZ BR 
     BECMG 1905/1907 18008G18KT 4000 HZ FEW035 SCT100 
     BECMG 1809/1815 25015G25KT 1500 -TSRA SCT035 FEW040CB BKN090 
     BECMG 1915/1917 18005KT 3000 HZ BR 
     BECMG 1920/1921 00000KT 2000 HZ BR
       
VAJB 181530Z 00000KT 4000 HZ NSC 34/17 Q1003
TAF VAJB 181700Z 1818/1903 29005KT 4000 HZ SCT100
       
VIJP 181900Z VRB02KT 2500 HZ FEW030 SCT100 26/23 Q1002 NOSIG
TAF VIJP 181700Z 1818/1924 23006KT 2500 HZ SCT035 SCT100 
     TEMPO 1818/1824 25008KT 1500 TSRA FEW035CB BKN100 
     BECMG 1900/1902 VRB03KT 2000 HZ SCT035 
     BECMG 1904/1906 25006KT 4000 HZ SCT035 SCT100 
     TEMPO 1906/1912 25008KT 1500 TSRA FEW035CB BKN100 
     BECMG 1913/1915 VRB03KT 2500 HZ SCT035 SCT100
       
TAF VIJR 181530Z 1900/1912 16012KT 6000 FEW025 SCT030
       
VIJU 181730Z VRB01KT 5000 DU FEW025 FEW030CB BKN200 30/21 Q1001 NOSIG
TAF VIJU 180930Z 1818/1912 05005KT 6000 FEW025 SCT100 
     TEMPO 1821/1823 34010G20KT 5000 TS/RS/DU SCT025 FEW030TCU/CB SCT090 
     BECMG 1903/1905 23005KT 6000 NSCTAF VAJM 180930Z 1812/1824 25010G20KT 6000
FEW015 SCT020 BKN080 
     TEMPO 1813/1815 5000 -RA
       
TAF VAJM 181700Z 1818/1903 22008KT 4000 HZ SCT020 SCT080 
     BECMG 1901/1903 2000 FEW015 SCT020 BKN080
       
TAF VEJS 181100Z 1812/1821 30005KT 4500 HZ -RA FEW020 FEW030CB SCT100 
     BECMG 1815/1816 00000KT 3500 HZ FEW020 SCT100
       
VEJH 181530Z 00000KT 5000 HZ SCT018 SCT100 28/24 Q1004
TAF VEJH 180800Z 1809/1818 23005KT 5000 HZ SCT020 BKN100 
     TEMPO 1810/1814 2000 TSRA BKN018 FEW030CB OVC090
       
TAF VIJO 181530Z 1900/1912 16010KT 6000 SCT025 SCT090 
     TEMPO 1901/1905 5000-RA SCT020 BKN090
       
TAF VEJT 181530Z 1900/1912 05005KT 4000 BR SCT020 BKN090 
     BECMG 1902/1903 6000 SCT025 SCT090 
     TEMPO 1909/1912 FEW025TCU
       
TAF VAKE 181400Z 1815/1824 23008G18KT 4000 HZ SCT015 BKN080 
       
TAF VAKP 181100Z 1812/1821 25005KT 5000 HZ SCT020 SCT025 
     TEMPO 1812/1821 2000 -TSRA -RA SCT015 FEW030CB BKN090
       
VILH 181730Z 36005KT 6000 CCHT FEW060 BKN100 09/-1 Q1021 NOSIG
TAF VILH 180930Z 1818/1912 29010KT 6000 SCT070 SCT100 
     BECMG 1902/1904 SCT060 BKN120 
     TEMPO 1907/1909 20015KT RA FEW060 TCU 
     TEMPO 1909/1912 30020G30KT
       
TAF VELP 180800Z 1809/1818 06005KT 4000 HZ SCT018 FEW025CB BKN100 
     TEMPO 1811/1814 3000 -TSRA SCT016 FEW025CB OVC090
       
TAF VELR 180800Z 1809/1818 12006KT 5000 BR FEW018 
     BECMG 1813/1815 00000KT 4000 BR -TSRA SCT018 FEW025CB BKN090
       
VILK 181900Z 27005KT 3000 HZ SCT020 BKN100 30/17 Q1001 NOSIG
TAF VILK 181700Z 1818/1903 29005KT 3000 HZ FEW025 SCT100
       
VOMD 181900Z 28007KT 6000 FEW020 SCT100 30/22 Q1007 NOSIG
TAF VOMD 181700Z 1818/1924 27010KT 6000 FEW020 SCT100 
     TEMPO 1818/1824 SCT018 FEW025TCU/CB BKN100 
     BECMG 1821/1822 00000KT 
     BECMG 1900/1901 27005KT 
     TEMPO 1912/1918 SCT018 FEW025TCU/CB BKN100 
     BECMG 1921/1922 00000KT
       
VOML 181900Z 15004KT 4000 -RA BR FEW005 SCT012 BKN080 25/23 Q1008 NOSIG
TAF VOML 181700Z 1818/1924 VRB02KT 6000 SCT012 SCT080 
     TEMPO 1818/1821 3000 RA DZ SCT008 SCT012 FEW025CB BKN080 
     BECMG 1821/1822 11010K
       
VANP 181900Z 13004KT 4000 HZ FEW020 SCT100 33/21 Q1002 NOSIG
TAF VANP 181700Z 1818/1924 34003KT 4000 HZ FEW020 SCT100 
     BECMG 1906/1908 29008KT 6000 SCT020 SCT025 
     BECMG 1912/1914 34003KT 3000 -RA HZ SCT020 SCT100 
     TEMPO 1910/1914 34010G20KT 1500 -TSRA SCT020 FEW030CB BKN090
       
VECC 181900Z 10002KT 3500 HZ SCT018 SCT100 28/26 Q1000 NOSIG
TAF VECC 181700Z 1818/1924 16007KT 3500 HZ SCT018 SCT100 
     BECMG 1822/1824 2800 HZ 
     BECMG 1902/1904 4000 HZ 
     PROB40 
     TEMPO 1911/1915 2000 TSRA SCT015 FEW025CB OVC090 
     BECMG 1921/1923 2800 HZ
       
VEPT 181900Z 00000KT 4500 HZ NSC 33/24 Q0999 NOSIG
TAF VEPT 181700Z 1818/1903 28003KT 4500 HZ FEW020 
     BECMG 1900/1902 00000KT 4000 HZ SCT020
       
TAF VAPR 181700Z 1818/1903 23014G24KT 4000 HZ SCT012 SCT020 BKN080 
     BECMG 1901/1903 23011G21KT 3000 HZRA
       
TAF VAPO 181530Z 1818/1906 23010KT 6000 SCT020 SCT030 
     TEMPO 1900/1903 4000 -RATAF VISR 181530Z 1818/1906 VRB02KT 6000 SCT025
       
VORY 181600Z 25004KT 6000 SCT020 BKN090 33/23 Q1002 NOSIG
TAF VORY 181100Z 1812/1821 34012KT 6000 SCT020 BKN090
       
VARK 181400Z 24010KT 6000 FEW015 SCT080 29/25 Q0999
TAF VARK 181700Z 1818/1903 22008KT 5000 HZ FEW020 SCT080 
     BECMG 1901/1903 3000 FEW015 SCT025 BKN080
       
TAF VASL 181100Z 1812/1821 25005KT 5000 HZ SCT020 SCT025 
     TEMPO 1812/1821 2000 -TSRA -RA SCT015 FEW030CB BKN090
       
TAF VEKU 181530Z 1900/1912 18005KT 6000 FEW020 SCT090 
     TEMPO 1906/19XX 20005KT 4000 -RA SCT020 BKN090
       
VISR 181730Z 15003KT 6000 SCT020 BKN100 15/13 Q1014 NSOIG
TAF VISR 180930Z 1812/1824 14005KT 6000 SCT025 FEW030CB/TCU SCT080 
     BECMG FM 181500Z VRB02KT SCT025
       
VASU 181800Z 20005KT 6000 FEW020 SCT080 29/26 Q1003
TAF VASU 181700Z 1818/1903 23010KT 3000 HZRA SCT012 SCT020 BKN080 
     BECMG 1901/1903 2000 HZ SCT012 SCT020 BKN080
       
TAF VETZ 181530Z 1900/1912 27010KT 4000 TSRA SCT010 SCT015 FEW030CB BKN080 
     BECMG 1904/1906 07007KT 6000 SCT015 FEW030TCU BKN090 
     BECMG 1910/1912 6000 TS SCT020 FEW030CB BKN090
       
VOTV 181900Z 33006KT 4000 HZ FEW015 SCT080 28/25 Q1008 NOSIG
TAF VOTV 181700Z 1818/1924 32010KT 4000 HZ SC012 BKN080 
     TEMPO 1823/1903 09005KT 2500 RA/BR SCT010 SCT012 FEW025CB BKN080 
     BECMG 1904/1906 32010KT 6000 SCT012 BKN080 
     TEMPO 1912/1915 32010G20KT 3000 TSRA/RA SCT010 SCT012 FEW025CB BKN080 
     BECMG 1918/1920 32010KT 4000 HZ SCT012 FEW025CB BKN080
       
VOTR 181900Z 27010G20KT 6000 FEW016 SCT100 31/20 Q1005 NOSIG
TAF VOTR 181700Z 1818/1924 27010KT 6000 FEW016 SCT100 
     TEMPO 1818/1824 SCT015 FEW025TCU/CB BKN100 
     BECMG 1900/1901 27010G20KT 
     BECMG 1918/1919 27010KT
       
VOTP 181600Z 24008KT 6000 FEW020 SCT100 35/21 Q1004
TAF VOTP 180800Z 1809/1818 27010G20KT 6000 FEW020 SCT100 
     TEMPO 1810/1816 FEW030CB
       
VAUD 181330Z 13002KT 2000 HZ SCT025 BKN080 25/24 Q1002 NOSIG
TAF VAUD 181100Z 1812/1821 18010KT 1500 TSRA BKN030 FEW035CB BKN080
       
VABO 181530Z 19014G24KT 5000 REDZ/HZ SCT012 SCT020 BKN080 30/25 Q1001 NOSIG
TAF VABO 181700Z 1818/1903 22008KT 5000 HZ FEW020 SCT080 
     BECMG 1901/1903 3000 SCT012 SCT020
       
VOBZ 181600Z 00000KT 5000 HZ SCT020 BKN100 35/25 Q1002 NOSIG
TAF VOBZ 180800Z 1809/1818 32012KT 6000 FEW020 SCT100 
     TEMPO 1810/1816 FEW030CB